Time;durP1;ratioP1;P1;durP2;ratioP2;P2;SDS_P1;SDS_P2;PMS_P1;PMS_P2;Temp;Humidity;BMP_temperature;BMP_pressure;BME280_temperature;BME280_humidity;BME280_pressure;Samples;Min_cycle;Max_cycle;Signal;HPM_P1;HPM_P2
2022/03/07 00:00:50;;;;;;;56.47;31.45;;;;;;;;;;5050896;28;20078;-84
2022/03/07 00:03:16;;;;;;;54.47;28.63;;;;;;;;;;5049879;28;20028;-85
2022/03/07 00:05:42;;;;;;;60.22;30.08;;;;;;;;;;5049226;28;20025;-83
2022/03/07 00:08:08;;;;;;;51.20;27.60;;;;;;;;;;5049157;28;20687;-84
2022/03/07 00:10:34;;;;;;;61.17;32.92;;;;;;;;;;5050176;28;20037;-86
2022/03/07 00:13:00;;;;;;;53.63;27.65;;;;;;;;;;5049088;28;20052;-84
2022/03/07 00:15:26;;;;;;;53.30;28.98;;;;;;;;;;5050204;28;20511;-83
2022/03/07 00:17:52;;;;;;;53.28;29.33;;;;;;;;;;5050072;28;20021;-86
2022/03/07 00:20:18;;;;;;;60.58;34.25;;;;;;;;;;5050913;28;20025;-84
2022/03/07 00:22:45;;;;;;;51.88;28.98;;;;;;;;;;5049705;28;20099;-90
2022/03/07 00:25:11;;;;;;;58.78;31.58;;;;;;;;;;5050057;28;20485;-86
2022/03/07 00:27:37;;;;;;;53.83;29.55;;;;;;;;;;5049914;28;20071;-84
2022/03/07 00:30:03;;;;;;;55.75;30.05;;;;;;;;;;5049869;28;20435;-83
2022/03/07 00:32:30;;;;;;;51.45;28.65;;;;;;;;;;5049743;28;20033;-85
2022/03/07 00:34:56;;;;;;;52.67;27.42;;;;;;;;;;5049855;28;20459;-83
2022/03/07 00:37:22;;;;;;;55.90;29.65;;;;;;;;;;5049873;28;20025;-84
2022/03/07 00:39:48;;;;;;;53.22;30.20;;;;;;;;;;5050698;28;20025;-88
2022/03/07 00:42:14;;;;;;;65.38;33.38;;;;;;;;;;5048125;28;20037;-83
2022/03/07 00:44:40;;;;;;;54.42;28.52;;;;;;;;;;5048348;28;20315;-84
2022/03/07 00:47:06;;;;;;;51.97;27.25;;;;;;;;;;5049609;28;20032;-85
2022/03/07 00:49:32;;;;;;;46.28;25.35;;;;;;;;;;5049520;28;20033;-89
2022/03/07 00:51:58;;;;;;;54.63;31.45;;;;;;;;;;5049419;28;20405;-85
2022/03/07 00:54:25;;;;;;;53.65;28.63;;;;;;;;;;5048275;28;20022;-83
2022/03/07 00:56:51;;;;;;;61.17;29.70;;;;;;;;;;5048601;28;20021;-84
2022/03/07 00:59:17;;;;;;;55.83;29.83;;;;;;;;;;5048255;28;20039;-86
2022/03/07 01:01:43;;;;;;;52.88;29.20;;;;;;;;;;5049334;28;20021;-86
2022/03/07 01:04:09;;;;;;;59.85;32.15;;;;;;;;;;5047975;28;20385;-83
2022/03/07 01:06:35;;;;;;;59.28;30.38;;;;;;;;;;5049081;28;20025;-85
2022/03/07 01:09:01;;;;;;;53.63;27.95;;;;;;;;;;5049289;28;20098;-83
2022/03/07 01:11:27;;;;;;;52.00;30.73;;;;;;;;;;5048970;28;20068;-83
2022/03/07 01:13:53;;;;;;;53.60;30.42;;;;;;;;;;5049086;28;20386;-85
2022/03/07 01:16:19;;;;;;;55.35;29.98;;;;;;;;;;5049810;28;20020;-84
2022/03/07 01:18:46;;;;;;;51.63;28.02;;;;;;;;;;5048932;28;20028;-85
2022/03/07 01:21:13;;;;;;;51.17;28.50;;;;;;;;;;5049156;28;20308;-83
2022/03/07 01:23:39;;;;;;;53.08;29.05;;;;;;;;;;5047556;28;20071;-83
2022/03/07 01:26:05;;;;;;;50.33;30.23;;;;;;;;;;5048682;28;20031;-83
2022/03/07 01:28:31;;;;;;;55.15;31.60;;;;;;;;;;5048857;28;20020;-83
2022/03/07 01:30:57;;;;;;;53.05;29.15;;;;;;;;;;5049077;28;20029;-84
2022/03/07 01:33:23;;;;;;;60.38;33.45;;;;;;;;;;5049183;28;20032;-84
2022/03/07 01:35:49;;;;;;;48.38;27.58;;;;;;;;;;5049852;28;20021;-84
2022/03/07 01:38:15;;;;;;;57.20;31.10;;;;;;;;;;5048940;28;20025;-84
2022/03/07 01:40:43;;;;;;;55.45;30.45;;;;;;;;;;5049064;28;20496;-83
2022/03/07 01:43:09;;;;;;;51.90;28.83;;;;;;;;;;5048748;28;20481;-84
2022/03/07 01:45:35;;;;;;;53.78;28.88;;;;;;;;;;5047498;28;20390;-83
2022/03/07 01:48:02;;;;;;;57.95;32.88;;;;;;;;;;5048745;28;20043;-84
2022/03/07 01:50:28;;;;;;;55.00;33.15;;;;;;;;;;5048658;28;20068;-84
2022/03/07 01:52:54;;;;;;;50.92;28.50;;;;;;;;;;5047517;28;20040;-84
2022/03/07 01:55:20;;;;;;;53.30;28.88;;;;;;;;;;5049652;28;20108;-85
2022/03/07 01:57:49;;;;;;;51.05;27.90;;;;;;;;;;5048681;28;20025;-84
2022/03/07 02:00:23;;;;;;;58.20;29.25;;;;;;;;;;5047433;28;20112;-83
2022/03/07 02:02:50;;;;;;;53.08;30.58;;;;;;;;;;5049545;28;20025;-84
2022/03/07 02:05:16;;;;;;;55.00;30.48;;;;;;;;;;5048926;28;20025;-83
2022/03/07 02:07:42;;;;;;;55.85;29.20;;;;;;;;;;5051761;28;20056;-86
2022/03/07 02:10:09;;;;;;;58.97;32.05;;;;;;;;;;5049626;28;20021;-87
2022/03/07 02:12:35;;;;;;;63.20;34.88;;;;;;;;;;5051457;28;20037;-85
2022/03/07 02:15:02;;;;;;;51.05;29.20;;;;;;;;;;5053042;28;20017;-83
2022/03/07 02:17:29;;;;;;;62.42;34.97;;;;;;;;;;5052978;28;20108;-84
2022/03/07 02:19:55;;;;;;;49.35;27.45;;;;;;;;;;5053063;28;20021;-83
2022/03/07 02:22:22;;;;;;;49.15;28.83;;;;;;;;;;5053587;28;20473;-90
2022/03/07 02:24:48;;;;;;;51.63;28.85;;;;;;;;;;5052623;28;20021;-83
2022/03/07 02:27:18;;;;;;;53.80;27.77;;;;;;;;;;5052406;28;20071;-85
2022/03/07 02:29:45;;;;;;;58.92;32.50;;;;;;;;;;5052564;28;20025;-83
2022/03/07 02:32:11;;;;;;;52.90;29.13;;;;;;;;;;5052597;28;20025;-84
2022/03/07 02:34:38;;;;;;;55.30;30.98;;;;;;;;;;5052545;28;20021;-86
2022/03/07 02:37:04;;;;;;;56.30;30.35;;;;;;;;;;5051112;28;20040;-85
2022/03/07 02:39:30;;;;;;;59.20;30.90;;;;;;;;;;5052755;28;20020;-85
2022/03/07 02:41:56;;;;;;;54.25;30.60;;;;;;;;;;5053126;28;20021;-83
2022/03/07 02:44:23;;;;;;;56.30;31.20;;;;;;;;;;5053163;28;20032;-88
2022/03/07 02:46:49;;;;;;;53.90;29.02;;;;;;;;;;5051067;28;20401;-86
2022/03/07 02:49:15;;;;;;;52.60;29.13;;;;;;;;;;5052017;28;20028;-84
2022/03/07 02:51:41;;;;;;;60.53;32.42;;;;;;;;;;5050577;28;20048;-84
2022/03/07 02:54:07;;;;;;;55.15;29.92;;;;;;;;;;5052166;28;20040;-87
2022/03/07 02:56:34;;;;;;;52.30;29.00;;;;;;;;;;5052019;28;20025;-84
2022/03/07 02:59:00;;;;;;;51.22;28.40;;;;;;;;;;5052723;28;20028;-85
2022/03/07 03:01:26;;;;;;;53.10;29.98;;;;;;;;;;5052158;28;20021;-83
2022/03/07 03:03:52;;;;;;;49.30;28.25;;;;;;;;;;5051988;28;20032;-83
2022/03/07 03:06:18;;;;;;;52.30;29.58;;;;;;;;;;5052061;28;20112;-82
2022/03/07 03:08:44;;;;;;;53.17;29.70;;;;;;;;;;5052469;28;20060;-82
2022/03/07 03:11:11;;;;;;;58.47;30.58;;;;;;;;;;5050479;28;20068;-83
2022/03/07 03:13:37;;;;;;;53.03;28.73;;;;;;;;;;5051608;28;20385;-82
2022/03/07 03:16:04;;;;;;;50.10;29.08;;;;;;;;;;5051945;28;20033;-87
2022/03/07 03:18:30;;;;;;;61.05;32.67;;;;;;;;;;5050475;28;20389;-84
2022/03/07 03:20:56;;;;;;;54.05;30.48;;;;;;;;;;5051575;28;20028;-86
2022/03/07 03:23:23;;;;;;;57.17;30.58;;;;;;;;;;5059280;28;20017;-91
2022/03/07 03:25:49;;;;;;;49.55;29.10;;;;;;;;;;5059898;28;20463;-88
2022/03/07 03:28:15;;;;;;;51.67;28.80;;;;;;;;;;5070488;28;20025;-84
2022/03/07 03:30:41;;;;;;;50.35;28.13;;;;;;;;;;5071312;28;20036;-83
2022/03/07 03:33:08;;;;;;;54.38;29.48;;;;;;;;;;5057496;28;20024;-94
2022/03/07 03:35:37;;;;;;;54.78;27.60;;;;;;;;;;5031457;28;20057;-91
2022/03/07 03:38:04;;;;;;;53.08;28.02;;;;;;;;;;5030357;28;20029;-85
2022/03/07 03:40:30;;;;;;;52.13;30.30;;;;;;;;;;5032119;28;20026;-84
2022/03/07 03:42:56;;;;;;;49.85;28.23;;;;;;;;;;5032825;28;20022;-88
2022/03/07 03:45:22;;;;;;;55.95;30.40;;;;;;;;;;5030297;28;20028;-85
2022/03/07 03:47:48;;;;;;;54.63;31.02;;;;;;;;;;5030577;28;20533;-87
2022/03/07 03:50:14;;;;;;;52.28;29.30;;;;;;;;;;5031372;28;20030;-90
2022/03/07 03:52:41;;;;;;;60.83;32.53;;;;;;;;;;5030402;28;20041;-84
2022/03/07 03:55:10;;;;;;;54.75;30.65;;;;;;;;;;5031489;28;20060;-87
2022/03/07 03:57:36;;;;;;;51.20;28.88;;;;;;;;;;5031470;28;20037;-89
2022/03/07 04:00:03;;;;;;;53.75;31.23;;;;;;;;;;5031579;28;20109;-85
2022/03/07 04:02:29;;;;;;;60.45;34.85;;;;;;;;;;5031722;28;20429;-86
2022/03/07 04:04:55;;;;;;;52.58;30.45;;;;;;;;;;5030749;28;20370;-88
2022/03/07 04:07:22;;;;;;;53.25;29.58;;;;;;;;;;5031631;28;20273;-89
2022/03/07 04:09:48;;;;;;;54.45;30.70;;;;;;;;;;5030653;28;20076;-85
2022/03/07 04:12:14;;;;;;;52.38;30.25;;;;;;;;;;5049193;28;20036;-85
2022/03/07 04:14:40;;;;;;;58.03;31.20;;;;;;;;;;5050234;28;20180;-86
2022/03/07 04:17:06;;;;;;;56.17;30.42;;;;;;;;;;5050578;28;20059;-84
2022/03/07 04:19:32;;;;;;;55.72;30.38;;;;;;;;;;5050546;28;20021;-85
2022/03/07 04:21:58;;;;;;;56.85;28.67;;;;;;;;;;5049991;28;20052;-86
2022/03/07 04:24:24;;;;;;;52.95;29.75;;;;;;;;;;5049150;28;20511;-85
2022/03/07 04:26:50;;;;;;;50.50;28.80;;;;;;;;;;5050161;28;20025;-86
2022/03/07 04:29:16;;;;;;;57.83;30.95;;;;;;;;;;5049978;28;20020;-86
2022/03/07 04:31:43;;;;;;;49.90;30.58;;;;;;;;;;5049640;28;20047;-85
2022/03/07 04:34:09;;;;;;;50.08;28.38;;;;;;;;;;5049162;28;20024;-86
2022/03/07 04:36:38;;;;;;;62.60;34.08;;;;;;;;;;5050004;28;20056;-84
2022/03/07 04:39:05;;;;;;;64.43;34.35;;;;;;;;;;5050232;28;20511;-84
2022/03/07 04:41:31;;;;;;;52.05;29.45;;;;;;;;;;5051102;28;20039;-88
2022/03/07 04:43:57;;;;;;;51.45;29.08;;;;;;;;;;5050193;28;20507;-91
2022/03/07 04:46:23;;;;;;;59.47;32.10;;;;;;;;;;5050704;28;20488;-89
2022/03/07 04:48:49;;;;;;;53.72;31.42;;;;;;;;;;5050332;28;20018;-88
2022/03/07 04:51:15;;;;;;;49.13;29.25;;;;;;;;;;5050731;28;20047;-90
2022/03/07 04:53:41;;;;;;;54.42;30.13;;;;;;;;;;5050288;28;20017;-89
2022/03/07 04:56:08;;;;;;;54.85;30.02;;;;;;;;;;5048839;28;20404;-85
2022/03/07 04:58:34;;;;;;;53.38;30.15;;;;;;;;;;5049462;28;20040;-86
2022/03/07 05:01:00;;;;;;;52.50;30.83;;;;;;;;;;5056182;28;20029;-86
2022/03/07 05:03:26;;;;;;;55.78;30.95;;;;;;;;;;5059467;28;20032;-86
2022/03/07 05:05:53;;;;;;;51.13;28.80;;;;;;;;;;5054235;28;20035;-86
2022/03/07 05:08:19;;;;;;;57.88;29.35;;;;;;;;;;5050455;28;20021;-85
2022/03/07 05:10:45;;;;;;;59.65;34.83;;;;;;;;;;5049878;28;20112;-85
2022/03/07 05:13:11;;;;;;;50.75;29.30;;;;;;;;;;5048111;28;20021;-83
2022/03/07 05:15:37;;;;;;;50.78;30.88;;;;;;;;;;5047233;28;20036;-87
2022/03/07 05:18:04;;;;;;;59.13;36.70;;;;;;;;;;5048419;28;20025;-86
2022/03/07 05:20:30;;;;;;;61.67;32.92;;;;;;;;;;5049877;28;20033;-84
2022/03/07 05:22:56;;;;;;;51.47;29.60;;;;;;;;;;5049083;28;20123;-87
2022/03/07 05:25:23;;;;;;;53.97;31.20;;;;;;;;;;5049306;28;20025;-84
2022/03/07 05:27:49;;;;;;;50.47;29.27;;;;;;;;;;5049190;28;20021;-84
2022/03/07 05:30:17;;;;;;;53.42;31.20;;;;;;;;;;5049024;28;20025;-85
2022/03/07 05:32:44;;;;;;;49.80;29.47;;;;;;;;;;5049014;28;20078;-84
2022/03/07 05:35:10;;;;;;;55.42;32.95;;;;;;;;;;5048824;28;20021;-85
2022/03/07 05:37:37;;;;;;;56.15;32.00;;;;;;;;;;5047864;28;20123;-84
2022/03/07 05:40:03;;;;;;;48.58;29.13;;;;;;;;;;5049967;28;20061;-84
2022/03/07 05:42:29;;;;;;;56.70;30.45;;;;;;;;;;5048942;28;20099;-83
2022/03/07 05:44:55;;;;;;;92.18;29.85;;;;;;;;;;5048841;28;20495;-89
2022/03/07 05:47:21;;;;;;;53.67;27.33;;;;;;;;;;5048373;28;20570;-87
2022/03/07 05:49:47;;;;;;;54.63;32.80;;;;;;;;;;5048338;28;20504;-85
2022/03/07 05:52:14;;;;;;;53.88;29.25;;;;;;;;;;5048571;28;20473;-86
2022/03/07 05:54:40;;;;;;;53.28;28.55;;;;;;;;;;5047333;28;20028;-87
2022/03/07 05:57:06;;;;;;;47.05;27.35;;;;;;;;;;5049242;28;20108;-86
2022/03/07 05:59:32;;;;;;;49.10;27.55;;;;;;;;;;5047953;28;20017;-87
2022/03/07 06:01:58;;;;;;;50.30;29.00;;;;;;;;;;5048396;28;20028;-86
2022/03/07 06:04:24;;;;;;;44.20;26.05;;;;;;;;;;5047286;28;20025;-87
2022/03/07 06:06:51;;;;;;;53.15;28.33;;;;;;;;;;5039419;28;20479;-86
2022/03/07 06:09:17;;;;;;;47.13;26.55;;;;;;;;;;5041529;28;20021;-87
2022/03/07 06:11:43;;;;;;;51.90;29.33;;;;;;;;;;5035083;28;20631;-87
2022/03/07 06:14:09;;;;;;;44.70;26.92;;;;;;;;;;5059657;28;20053;-88
2022/03/07 06:16:35;;;;;;;51.65;27.65;;;;;;;;;;5047066;28;20029;-87
2022/03/07 06:19:01;;;;;;;54.95;28.25;;;;;;;;;;5048712;28;20480;-87
2022/03/07 06:21:27;;;;;;;53.22;27.60;;;;;;;;;;5047053;28;20691;-88
2022/03/07 06:23:53;;;;;;;51.60;27.83;;;;;;;;;;5047125;28;20044;-88
2022/03/07 06:26:20;;;;;;;52.03;28.58;;;;;;;;;;5048324;28;20017;-89
2022/03/07 06:28:46;;;;;;;49.33;27.30;;;;;;;;;;5048217;28;20025;-88
2022/03/07 06:31:12;;;;;;;58.95;34.08;;;;;;;;;;5046583;28;20504;-89
2022/03/07 06:33:38;;;;;;;53.05;31.52;;;;;;;;;;5048977;28;20470;-86
2022/03/07 06:36:08;;;;;;;46.33;27.25;;;;;;;;;;5049171;28;20025;-87
2022/03/07 06:38:34;;;;;;;51.33;30.10;;;;;;;;;;5049095;28;20029;-85
2022/03/07 06:41:01;;;;;;;49.15;28.02;;;;;;;;;;5048341;28;20025;-86
2022/03/07 06:43:27;;;;;;;48.88;27.65;;;;;;;;;;5049244;28;20461;-87
2022/03/07 06:45:54;;;;;;;48.90;27.70;;;;;;;;;;5049156;28;20028;-87
2022/03/07 06:48:21;;;;;;;51.60;28.83;;;;;;;;;;5048655;28;20021;-90
2022/03/07 06:50:47;;;;;;;50.38;27.73;;;;;;;;;;5047717;28;20036;-86
2022/03/07 06:53:13;;;;;;;54.08;31.23;;;;;;;;;;5048330;28;20021;-86
2022/03/07 06:55:40;;;;;;;51.08;28.73;;;;;;;;;;5049598;28;20052;-87
2022/03/07 06:58:06;;;;;;;56.83;27.95;;;;;;;;;;5049980;28;20029;-86
2022/03/07 07:00:32;;;;;;;52.30;26.58;;;;;;;;;;5051842;28;20500;-85
2022/03/07 07:02:58;;;;;;;53.35;30.20;;;;;;;;;;5051742;28;20036;-85
2022/03/07 07:05:25;;;;;;;49.50;29.13;;;;;;;;;;5052038;28;20025;-85
2022/03/07 07:07:51;;;;;;;46.45;28.05;;;;;;;;;;5052060;28;20095;-86
2022/03/07 07:10:20;;;;;;;51.30;28.92;;;;;;;;;;5051954;28;20029;-86
2022/03/07 07:12:49;;;;;;;50.38;28.08;;;;;;;;;;5051573;28;20521;-86
2022/03/07 07:15:16;;;;;;;48.70;29.55;;;;;;;;;;5051309;28;20028;-86
2022/03/07 07:17:43;;;;;;;51.88;29.05;;;;;;;;;;5051810;28;20035;-86
2022/03/07 07:20:10;;;;;;;50.25;28.67;;;;;;;;;;5052567;28;20021;-87
2022/03/07 07:22:36;;;;;;;51.95;28.67;;;;;;;;;;5052357;28;20517;-85
2022/03/07 07:25:03;;;;;;;53.78;28.48;;;;;;;;;;5050269;28;20024;-90
2022/03/07 07:27:30;;;;;;;53.17;30.70;;;;;;;;;;5050484;28;20025;-87
2022/03/07 07:29:56;;;;;;;53.72;27.73;;;;;;;;;;5050049;28;20071;-89
2022/03/07 07:32:22;;;;;;;49.63;28.20;;;;;;;;;;5050042;28;20032;-89
2022/03/07 07:34:48;;;;;;;55.80;29.83;;;;;;;;;;5051304;28;20028;-88
2022/03/07 07:37:14;;;;;;;53.15;29.02;;;;;;;;;;5051505;28;20032;-87
2022/03/07 07:39:40;;;;;;;53.17;29.25;;;;;;;;;;5052474;28;20381;-86
2022/03/07 07:42:06;;;;;;;48.13;26.35;;;;;;;;;;5051097;28;20033;-87
2022/03/07 07:44:33;;;;;;;47.47;27.38;;;;;;;;;;5049788;28;20036;-87
2022/03/07 07:46:59;;;;;;;53.90;30.02;;;;;;;;;;5051121;28;20033;-87
2022/03/07 07:49:25;;;;;;;48.40;28.50;;;;;;;;;;5050596;28;20536;-86
2022/03/07 07:51:51;;;;;;;48.92;27.45;;;;;;;;;;5049599;28;20028;-89
2022/03/07 07:54:17;;;;;;;45.80;27.02;;;;;;;;;;5050991;28;20420;-86
2022/03/07 07:56:44;;;;;;;59.42;30.52;;;;;;;;;;5049702;28;20061;-85
2022/03/07 07:59:13;;;;;;;48.50;28.25;;;;;;;;;;5051844;28;20025;-86
2022/03/07 08:01:39;;;;;;;47.35;28.85;;;;;;;;;;5050325;28;20558;-88
2022/03/07 08:04:05;;;;;;;43.85;26.80;;;;;;;;;;5050938;28;20052;-87
2022/03/07 08:06:31;;;;;;;44.92;25.98;;;;;;;;;;5050732;28;20024;-86
2022/03/07 08:08:57;;;;;;;49.30;27.15;;;;;;;;;;5050662;28;20473;-86
2022/03/07 08:11:23;;;;;;;45.83;26.75;;;;;;;;;;5049319;28;20055;-86
2022/03/07 08:13:49;;;;;;;47.55;28.40;;;;;;;;;;5050652;28;20104;-86
2022/03/07 08:16:18;;;;;;;49.13;27.63;;;;;;;;;;5050656;28;20025;-90
2022/03/07 08:18:44;;;;;;;46.97;26.45;;;;;;;;;;5050078;28;20400;-86
2022/03/07 08:21:10;;;;;;;44.38;26.85;;;;;;;;;;5050018;28;20493;-86
2022/03/07 08:23:36;;;;;;;48.67;26.63;;;;;;;;;;5050477;28;20388;-88
2022/03/07 08:26:03;;;;;;;47.00;28.50;;;;;;;;;;5049168;28;20123;-87
2022/03/07 08:28:29;;;;;;;45.28;26.17;;;;;;;;;;5050454;28;20021;-88
2022/03/07 08:30:55;;;;;;;44.53;26.25;;;;;;;;;;5049031;28;20040;-87
2022/03/07 08:33:21;;;;;;;46.70;29.00;;;;;;;;;;5050386;28;20036;-90
2022/03/07 08:35:47;;;;;;;43.72;27.23;;;;;;;;;;5050193;28;20048;-88
2022/03/07 08:38:13;;;;;;;45.10;26.38;;;;;;;;;;5051076;28;20096;-87
2022/03/07 08:40:39;;;;;;;42.72;26.00;;;;;;;;;;5050294;28;20087;-87
2022/03/07 08:43:05;;;;;;;42.28;26.40;;;;;;;;;;5050071;28;20273;-87
2022/03/07 08:45:32;;;;;;;45.17;26.50;;;;;;;;;;5050123;28;20473;-88
2022/03/07 08:47:58;;;;;;;45.65;26.65;;;;;;;;;;5049994;28;20385;-89
2022/03/07 08:50:24;;;;;;;48.58;28.98;;;;;;;;;;5049742;28;20021;-88
2022/03/07 08:52:50;;;;;;;45.97;28.48;;;;;;;;;;5049933;28;20032;-87
2022/03/07 08:55:16;;;;;;;44.95;27.05;;;;;;;;;;5050208;28;20013;-86
2022/03/07 08:57:42;;;;;;;45.45;26.90;;;;;;;;;;5050560;28;20075;-88
2022/03/07 09:00:10;;;;;;;44.15;27.45;;;;;;;;;;5049774;28;20121;-86
2022/03/07 09:02:36;;;;;;;43.53;26.80;;;;;;;;;;5048475;28;20711;-86
2022/03/07 09:05:02;;;;;;;43.70;25.52;;;;;;;;;;5048329;28;20029;-86
2022/03/07 09:07:29;;;;;;;43.08;26.08;;;;;;;;;;5048222;28;20078;-86
2022/03/07 09:09:55;;;;;;;40.97;25.20;;;;;;;;;;5049386;28;20112;-88
2022/03/07 09:12:25;;;;;;;48.55;27.90;;;;;;;;;;5049434;28;20558;-86
2022/03/07 09:14:51;;;;;;;44.17;25.50;;;;;;;;;;5049457;28;20044;-88
2022/03/07 09:17:17;;;;;;;45.40;25.58;;;;;;;;;;5049874;28;20063;-86
2022/03/07 09:19:44;;;;;;;44.75;26.15;;;;;;;;;;5049977;28;20021;-86
2022/03/07 09:22:10;;;;;;;41.30;25.95;;;;;;;;;;5049026;28;20017;-87
2022/03/07 09:24:36;;;;;;;42.75;26.55;;;;;;;;;;5049310;28;20025;-86
2022/03/07 09:27:02;;;;;;;42.97;26.23;;;;;;;;;;5047910;28;20374;-86
2022/03/07 09:29:30;;;;;;;38.95;24.75;;;;;;;;;;5049235;28;20033;-86
2022/03/07 09:31:56;;;;;;;52.42;26.48;;;;;;;;;;5049058;28;20040;-87
2022/03/07 09:34:22;;;;;;;41.40;25.08;;;;;;;;;;5047832;28;20029;-90
2022/03/07 09:36:48;;;;;;;39.70;25.40;;;;;;;;;;5049640;28;20033;-86
2022/03/07 09:39:15;;;;;;;38.50;25.67;;;;;;;;;;5050065;28;20139;-86
2022/03/07 09:41:42;;;;;;;41.00;24.65;;;;;;;;;;5047748;28;20086;-87
2022/03/07 09:44:08;;;;;;;43.85;27.30;;;;;;;;;;5049007;28;20432;-88
2022/03/07 09:46:34;;;;;;;40.60;24.73;;;;;;;;;;5049007;28;20029;-86
2022/03/07 09:49:00;;;;;;;38.67;24.20;;;;;;;;;;5048990;28;20017;-86
2022/03/07 09:51:26;;;;;;;41.55;24.65;;;;;;;;;;5047335;28;20048;-86
2022/03/07 09:53:53;;;;;;;36.80;24.30;;;;;;;;;;5048928;28;20021;-86
2022/03/07 09:56:19;;;;;;;40.45;23.27;;;;;;;;;;5049787;28;20025;-86
2022/03/07 09:58:45;;;;;;;37.75;23.63;;;;;;;;;;5049789;28;20043;-86
2022/03/07 10:01:13;;;;;;;40.35;24.70;;;;;;;;;;5047435;28;20033;-86
2022/03/07 10:03:39;;;;;;;41.40;24.03;;;;;;;;;;5047565;28;20496;-86
2022/03/07 10:06:12;;;;;;;38.38;23.42;;;;;;;;;;5047592;28;20099;-86
2022/03/07 10:08:38;;;;;;;37.90;22.52;;;;;;;;;;5047464;28;20029;-86
2022/03/07 10:11:09;;;;;;;38.58;25.77;;;;;;;;;;5047402;28;20044;-86
2022/03/07 10:13:35;;;;;;;37.85;23.65;;;;;;;;;;5048618;28;20021;-85
2022/03/07 10:16:04;;;;;;;39.25;23.95;;;;;;;;;;5048909;28;20025;-87
2022/03/07 10:18:30;;;;;;;;;;;;;;;;;;5048059;28;20048;-87
2022/03/07 10:20:58;;;;;;;36.78;23.75;;;;;;;;;;5047462;28;19948;-86
2022/03/07 10:23:25;;;;;;;;;;;;;;;;;;5047899;28;20544;-86
2022/03/07 10:25:51;;;;;;;38.95;24.77;;;;;;;;;;5048640;28;19905;-87
2022/03/07 10:28:18;;;;;;;38.55;22.45;;;;;;;;;;5049480;28;20025;-86
2022/03/07 10:30:44;;;;;;;35.55;22.05;;;;;;;;;;5048509;28;20025;-87
2022/03/07 10:33:12;;;;;;;39.67;24.00;;;;;;;;;;5050425;28;20603;-87
2022/03/07 10:35:42;;;;;;;37.40;23.30;;;;;;;;;;5052362;28;20021;-89
2022/03/07 10:38:10;;;;;;;39.88;23.73;;;;;;;;;;5052439;28;20025;-87
2022/03/07 10:40:39;;;;;;;36.85;22.00;;;;;;;;;;5051088;28;20064;-85
2022/03/07 10:43:05;;;;;;;36.10;23.23;;;;;;;;;;5051048;28;20025;-86
2022/03/07 10:45:32;;;;;;;38.00;23.15;;;;;;;;;;5052332;28;20485;-89
2022/03/07 10:47:59;;;;;;;38.70;25.98;;;;;;;;;;5051462;28;20473;-87
2022/03/07 10:50:26;;;;;;;35.33;21.92;;;;;;;;;;5046886;28;20042;-87
2022/03/07 10:52:54;;;;;;;36.38;24.45;;;;;;;;;;5032127;28;20047;-87
2022/03/07 10:55:24;;;;;;;33.40;21.70;;;;;;;;;;5032875;28;20109;-88
2022/03/07 10:57:50;;;;;;;36.42;24.65;;;;;;;;;;5031645;28;20535;-86
2022/03/07 11:00:17;;;;;;;34.50;21.63;;;;;;;;;;5030945;28;20036;-88
2022/03/07 11:02:47;;;;;;;33.33;20.98;;;;;;;;;;5032024;28;20017;-89
2022/03/07 11:05:13;;;;;;;38.25;20.42;;;;;;;;;;5031436;28;20040;-88
2022/03/07 11:07:41;;;;;;;28.27;19.58;;;;;;;;;;5030663;28;20113;-87
2022/03/07 11:10:08;;;;;;;29.45;19.05;;;;;;;;;;5031760;28;20030;-87
2022/03/07 11:12:35;;;;;;;34.05;20.13;;;;;;;;;;5030581;28;20552;-88
2022/03/07 11:15:08;;;;;;;30.38;20.40;;;;;;;;;;5031847;28;20025;-87
2022/03/07 11:17:37;;;;;;;29.08;19.65;;;;;;;;;;5030393;28;20493;-89
2022/03/07 11:20:03;;;;;;;35.50;21.48;;;;;;;;;;5031116;28;20084;-87
2022/03/07 11:22:29;;;;;;;30.35;20.80;;;;;;;;;;5030218;28;20025;-88
2022/03/07 11:24:55;;;;;;;31.58;21.10;;;;;;;;;;5030337;28;20034;-88
2022/03/07 11:27:22;;;;;;;31.52;19.35;;;;;;;;;;5032491;28;20021;-88
2022/03/07 11:29:48;;;;;;;30.02;19.83;;;;;;;;;;5031088;28;20504;-87
2022/03/07 11:32:15;;;;;;;28.55;20.05;;;;;;;;;;5031484;28;20048;-88
2022/03/07 11:34:51;;;;;;;32.08;21.88;;;;;;;;;;5031288;28;20377;-87
2022/03/07 11:37:18;;;;;;;32.60;20.45;;;;;;;;;;5031431;28;20022;-87
2022/03/07 11:39:44;;;;;;;29.30;19.23;;;;;;;;;;5031414;28;20033;-87
2022/03/07 11:42:12;;;;;;;32.47;19.88;;;;;;;;;;5029978;28;20036;-87
2022/03/07 11:44:40;;;;;;;30.33;19.67;;;;;;;;;;5031054;28;20025;-87
2022/03/07 11:47:14;;;;;;;30.50;18.33;;;;;;;;;;5029742;28;20029;-87
2022/03/07 11:49:41;;;;;;;29.42;19.33;;;;;;;;;;5030469;28;20057;-88
2022/03/07 11:52:09;;;;;;;24.80;17.92;;;;;;;;;;5031107;28;20041;-86
2022/03/07 11:54:35;;;;;;;28.88;19.33;;;;;;;;;;5029826;28;20030;-88
2022/03/07 11:57:08;;;;;;;29.30;18.50;;;;;;;;;;5030987;28;20470;-87
2022/03/07 11:59:35;;;;;;;25.63;17.50;;;;;;;;;;5030645;28;20068;-87
2022/03/07 12:02:01;;;;;;;23.95;17.10;;;;;;;;;;5045397;28;20127;-88
2022/03/07 12:04:37;;;;;;;26.90;18.38;;;;;;;;;;5050361;28;20025;-88
2022/03/07 12:07:03;;;;;;;27.70;18.52;;;;;;;;;;5050819;28;20465;-89
2022/03/07 12:09:33;;;;;;;27.35;17.80;;;;;;;;;;5049508;28;20017;-87
2022/03/07 12:12:01;;;;;;;24.85;17.75;;;;;;;;;;5050667;28;20037;-89
2022/03/07 12:14:28;;;;;;;24.95;16.70;;;;;;;;;;5049394;28;20032;-86
2022/03/07 12:16:54;;;;;;;27.58;16.92;;;;;;;;;;5051387;28;20056;-87
2022/03/07 12:19:22;;;;;;;25.42;16.58;;;;;;;;;;5050740;28;20457;-88
2022/03/07 12:21:49;;;;;;;30.75;17.35;;;;;;;;;;5050483;28;20384;-88
2022/03/07 12:24:18;;;;;;;24.23;16.75;;;;;;;;;;5050662;28;20021;-87
2022/03/07 12:26:48;;;;;;;25.50;17.88;;;;;;;;;;5050477;28;20032;-87
2022/03/07 12:29:15;;;;;;;24.83;17.58;;;;;;;;;;5050312;28;20017;-87
2022/03/07 12:32:00;;;;;;;23.63;17.02;;;;;;;;;;5050179;28;20036;-87
2022/03/07 12:34:27;;;;;;;22.77;16.30;;;;;;;;;;5049314;28;20021;-88
2022/03/07 12:36:59;;;;;;;25.38;17.17;;;;;;;;;;5053338;28;20032;-87
2022/03/07 12:39:29;;;;;;;25.33;16.02;;;;;;;;;;5050934;28;20029;-87
2022/03/07 12:42:00;;;;;;;27.63;18.88;;;;;;;;;;5050973;28;20539;-86
2022/03/07 12:44:26;;;;;;;23.02;16.40;;;;;;;;;;5051303;28;20112;-87
2022/03/07 12:46:52;;;;;;;27.25;16.83;;;;;;;;;;5050751;28;20414;-86
2022/03/07 12:49:19;;;;;;;26.17;16.55;;;;;;;;;;5047909;28;20485;-87
2022/03/07 12:51:45;;;;;;;28.52;18.15;;;;;;;;;;5050017;28;20029;-87
2022/03/07 12:54:12;;;;;;;27.63;16.70;;;;;;;;;;5049879;28;20100;-88
2022/03/07 12:56:39;;;;;;;21.40;15.32;;;;;;;;;;5047841;28;20029;-87
2022/03/07 12:59:06;;;;;;;27.63;16.35;;;;;;;;;;5048485;28;20056;-87
2022/03/07 13:01:32;;;;;;;25.00;17.02;;;;;;;;;;5049735;28;20560;-88
2022/03/07 13:03:59;;;;;;;25.13;17.58;;;;;;;;;;5048057;28;20025;-87
2022/03/07 13:06:35;;;;;;;24.40;17.77;;;;;;;;;;5050508;28;20067;-89
2022/03/07 13:09:01;;;;;;;26.48;17.42;;;;;;;;;;5049849;28;20029;-87
2022/03/07 13:11:31;;;;;;;23.50;16.58;;;;;;;;;;5049093;28;20044;-87
2022/03/07 13:13:58;;;;;;;24.48;17.63;;;;;;;;;;5049165;28;20052;-88
2022/03/07 13:16:26;;;;;;;26.13;18.27;;;;;;;;;;5048991;28;20029;-88
2022/03/07 13:18:58;;;;;;;26.23;17.90;;;;;;;;;;5048877;28;20117;-88
2022/03/07 13:21:25;;;;;;;26.13;17.65;;;;;;;;;;5050060;28;20033;-87
2022/03/07 13:23:51;;;;;;;23.88;16.95;;;;;;;;;;5048059;28;20112;-86
2022/03/07 13:26:23;;;;;;;25.33;17.33;;;;;;;;;;5048064;28;20029;-87
2022/03/07 13:28:49;;;;;;;22.98;15.77;;;;;;;;;;5049329;28;20044;-88
2022/03/07 13:31:15;;;;;;;23.00;16.52;;;;;;;;;;5042551;28;20115;-86
2022/03/07 13:33:42;;;;;;;24.42;16.75;;;;;;;;;;5029575;28;20025;-84
2022/03/07 13:36:14;;;;;;;24.15;16.92;;;;;;;;;;5029405;28;20030;-87
2022/03/07 13:38:40;;;;;;;25.08;16.88;;;;;;;;;;5028564;28;20044;-87
2022/03/07 13:41:10;;;;;;;23.00;16.40;;;;;;;;;;5029231;28;20551;-87
2022/03/07 13:43:36;;;;;;;23.45;15.82;;;;;;;;;;5029100;28;20033;-87
2022/03/07 13:46:02;;;;;;;22.33;15.52;;;;;;;;;;5029181;28;20064;-87
2022/03/07 13:48:28;;;;;;;24.08;16.67;;;;;;;;;;5029895;28;20103;-86
2022/03/07 13:50:55;;;;;;;24.30;17.42;;;;;;;;;;5044111;28;20041;-86
2022/03/07 13:53:22;;;;;;;27.45;17.35;;;;;;;;;;5029170;28;20033;-86
2022/03/07 13:55:50;;;;;;;25.23;16.55;;;;;;;;;;5029124;28;20021;-86
2022/03/07 13:58:18;;;;;;;23.52;16.85;;;;;;;;;;5029163;28;20048;-85
2022/03/07 14:00:46;;;;;;;24.35;16.60;;;;;;;;;;5044377;28;20025;-90
2022/03/07 14:03:12;;;;;;;26.58;16.92;;;;;;;;;;5029067;28;20384;-89
2022/03/07 14:05:46;;;;;;;26.17;17.30;;;;;;;;;;5029043;28;20021;-86
2022/03/07 14:08:13;;;;;;;23.30;17.13;;;;;;;;;;5048031;28;20508;-87
2022/03/07 14:10:39;;;;;;;25.08;17.30;;;;;;;;;;5048269;28;20551;-89
2022/03/07 14:13:05;;;;;;;22.90;17.70;;;;;;;;;;5032994;28;20041;-85
2022/03/07 14:15:33;;;;;;;25.30;17.95;;;;;;;;;;5033530;28;20032;-86